Time;durP1;ratioP1;P1;durP2;ratioP2;P2;SDS_P1;SDS_P2;PMS_P1;PMS_P2;Temp;Humidity;BMP_temperature;BMP_pressure;BME280_temperature;BME280_humidity;BME280_pressure;Samples;Min_cycle;Max_cycle;Signal;HPM_P1;HPM_P2
2024/02/15 00:00:51;;;;;;;9.07;6.13;;;13.80;99.90;;;;;;2076445;28;20034;-67
2024/02/15 00:01:52;;;;;;;8.02;5.78;;;13.80;99.90;;;;;;2076854;28;20037;-67
2024/02/15 00:02:52;;;;;;;11.35;6.35;;;13.80;99.90;;;;;;2075997;28;20044;-68
2024/02/15 00:03:53;;;;;;;8.23;6.22;;;13.80;99.90;;;;;;2077827;28;20033;-67
2024/02/15 00:04:54;;;;;;;6.75;5.22;;;13.80;99.90;;;;;;2074989;28;20032;-68
2024/02/15 00:05:54;;;;;;;9.98;5.72;;;13.80;99.90;;;;;;2078374;28;20483;-67
2024/02/15 00:06:55;;;;;;;11.55;6.20;;;13.80;99.90;;;;;;2077448;28;20030;-67
2024/02/15 00:07:55;;;;;;;9.15;5.97;;;13.80;99.90;;;;;;2075130;28;20109;-67
2024/02/15 00:08:56;;;;;;;9.93;6.53;;;13.80;99.90;;;;;;2075712;28;20040;-67
2024/02/15 00:09:58;;;;;;;9.20;5.93;;;13.80;99.90;;;;;;2073280;28;20121;-68
2024/02/15 00:10:59;;;;;;;8.23;6.10;;;13.80;99.90;;;;;;2074776;28;20022;-67
2024/02/15 00:11:59;;;;;;;7.75;6.15;;;13.80;99.90;;;;;;2075065;28;20112;-67
2024/02/15 00:13:00;;;;;;;9.88;5.82;;;13.80;99.90;;;;;;2076375;28;20052;-68
2024/02/15 00:14:01;;;;;;;11.48;6.18;;;13.80;99.90;;;;;;2076882;28;20144;-67
2024/02/15 00:15:01;;;;;;;8.13;5.88;;;13.80;99.90;;;;;;2076981;28;20029;-67
2024/02/15 00:16:02;;;;;;;8.43;6.32;;;13.80;99.90;;;;;;2075735;28;20438;-67
2024/02/15 00:17:04;;;;;;;8.77;6.13;;;13.80;99.90;;;;;;2076472;28;20029;-67
2024/02/15 00:18:04;;;;;;;10.77;6.85;;;13.80;99.90;;;;;;2076581;28;20378;-67
2024/02/15 00:19:06;;;;;;;11.55;7.03;;;13.80;99.90;;;;;;2075327;28;20104;-68
2024/02/15 00:20:09;;;;;;;9.93;6.00;;;13.80;99.90;;;;;;2076899;28;20022;-67
2024/02/15 00:21:11;;;;;;;8.15;6.38;;;13.80;99.90;;;;;;2077607;28;20017;-68
2024/02/15 00:22:11;;;;;;;13.65;6.10;;;13.80;99.90;;;;;;2073769;28;20112;-68
2024/02/15 00:23:12;;;;;;;8.43;6.38;;;13.80;99.90;;;;;;2077466;28;20029;-67
2024/02/15 00:24:14;;;;;;;11.75;6.55;;;13.80;99.90;;;;;;2073995;28;20041;-68
2024/02/15 00:25:15;;;;;;;12.75;6.50;;;13.80;99.90;;;;;;2077155;28;20028;-68
2024/02/15 00:26:15;;;;;;;11.50;6.55;;;13.80;99.90;;;;;;2077449;28;20033;-67
2024/02/15 00:27:16;;;;;;;10.23;6.30;;;13.80;99.90;;;;;;2074618;28;20049;-67
2024/02/15 00:28:17;;;;;;;9.00;6.10;;;13.80;99.90;;;;;;2075575;28;20049;-69
2024/02/15 00:29:28;;;;;;;10.85;6.88;;;13.80;99.90;;;;;;2075902;28;20061;-68
2024/02/15 00:30:29;;;;;;;10.18;6.50;;;13.80;99.90;;;;;;2075353;28;20112;-68
2024/02/15 00:31:29;;;;;;;10.55;6.78;;;13.80;99.90;;;;;;2075985;28;20029;-67
2024/02/15 00:32:30;;;;;;;11.68;6.88;;;13.80;99.90;;;;;;2075379;28;20030;-67
2024/02/15 00:33:30;;;;;;;8.18;6.88;;;13.80;99.90;;;;;;2075369;28;20498;-67
2024/02/15 00:34:32;;;;;;;8.57;6.70;;;13.80;99.90;;;;;;2074955;28;20029;-67
2024/02/15 00:35:32;;;;;;;12.02;6.50;;;13.80;99.90;;;;;;2076815;28;20029;-67
2024/02/15 00:36:33;;;;;;;9.18;6.82;;;13.80;99.90;;;;;;2076586;28;20104;-67
2024/02/15 00:37:34;;;;;;;9.85;6.97;;;13.80;99.90;;;;;;2077582;28;20022;-68
2024/02/15 00:38:35;;;;;;;11.07;7.00;;;13.80;99.90;;;;;;2074558;28;20033;-66
2024/02/15 00:39:35;;;;;;;13.27;6.97;;;13.80;99.90;;;;;;2075960;28;20030;-68
2024/02/15 00:40:36;;;;;;;9.68;6.70;;;13.80;99.90;;;;;;2075228;28;20448;-67
2024/02/15 00:41:36;;;;;;;11.32;6.88;;;13.80;99.90;;;;;;2077574;28;20126;-67
2024/02/15 00:42:37;;;;;;;7.55;6.75;;;13.80;99.90;;;;;;2075495;28;20018;-67
2024/02/15 00:43:38;;;;;;;12.43;7.30;;;13.80;99.90;;;;;;2074468;28;20522;-67
2024/02/15 00:44:39;;;;;;;9.55;6.57;;;13.80;99.90;;;;;;2074717;28;20029;-67
2024/02/15 00:45:40;;;;;;;10.20;6.53;;;13.80;99.90;;;;;;2076377;28;20041;-68
2024/02/15 00:46:41;;;;;;;10.73;7.30;;;13.80;99.90;;;;;;2074817;28;20022;-68
2024/02/15 00:47:42;;;;;;;10.25;6.72;;;13.70;99.90;;;;;;2076075;28;20108;-67
2024/02/15 00:48:42;;;;;;;9.15;6.55;;;13.70;99.90;;;;;;2076267;28;20028;-67
2024/02/15 00:49:44;;;;;;;12.13;6.80;;;13.80;99.90;;;;;;2075838;28;20036;-67
2024/02/15 00:50:45;;;;;;;11.18;7.45;;;13.80;99.90;;;;;;2075301;28;20025;-67
2024/02/15 00:51:45;;;;;;;8.95;6.90;;;13.80;99.90;;;;;;2076041;28;20032;-67
2024/02/15 00:52:46;;;;;;;7.72;6.93;;;13.80;99.90;;;;;;2075871;28;20041;-67
2024/02/15 00:53:47;;;;;;;9.40;6.50;;;13.80;99.90;;;;;;2076502;28;20386;-67
2024/02/15 00:54:47;;;;;;;10.55;7.30;;;13.80;99.90;;;;;;2073726;28;20041;-67
2024/02/15 00:55:48;;;;;;;12.18;7.57;;;13.80;99.90;;;;;;2077335;28;20057;-68
2024/02/15 00:56:48;;;;;;;12.82;7.15;;;13.80;99.90;;;;;;2074949;28;20090;-68
2024/02/15 00:57:49;;;;;;;11.10;7.30;;;13.80;99.90;;;;;;2076289;28;20091;-68
2024/02/15 00:58:49;;;;;;;12.18;7.22;;;13.80;99.90;;;;;;2074687;28;20067;-68
2024/02/15 00:59:51;;;;;;;15.13;8.10;;;13.80;99.90;;;;;;2076437;28;20034;-67
2024/02/15 01:00:53;;;;;;;15.73;7.80;;;13.80;99.90;;;;;;2075604;28;20033;-68
2024/02/15 01:01:54;;;;;;;12.57;7.72;;;13.80;99.90;;;;;;2074229;28;20037;-68
2024/02/15 01:02:55;;;;;;;10.73;7.75;;;13.80;99.90;;;;;;2076637;28;20471;-68
2024/02/15 01:03:56;;;;;;;10.48;7.95;;;13.80;99.90;;;;;;2076700;28;20053;-67
2024/02/15 01:04:58;;;;;;;10.57;8.23;;;13.80;99.90;;;;;;2074648;28;20065;-68
2024/02/15 01:05:59;;;;;;;9.95;7.53;;;13.80;99.90;;;;;;2075328;28;20037;-68
2024/02/15 01:06:59;;;;;;;11.63;8.05;;;13.80;99.90;;;;;;2076234;28;20044;-68
2024/02/15 01:08:00;;;;;;;13.75;7.93;;;13.80;99.90;;;;;;2075474;28;20041;-68
2024/02/15 01:09:02;;;;;;;9.50;7.82;;;13.80;99.90;;;;;;2076322;28;20033;-67
2024/02/15 01:10:03;;;;;;;9.80;8.10;;;13.80;99.90;;;;;;2078454;28;20455;-67
2024/02/15 01:11:04;;;;;;;11.13;7.88;;;13.80;99.90;;;;;;2078183;28;20495;-68
2024/02/15 01:12:05;;;;;;;12.00;7.80;;;13.80;99.90;;;;;;2077253;28;20018;-67
2024/02/15 01:13:05;;;;;;;11.70;7.10;;;13.80;99.90;;;;;;2075225;28;20114;-67
2024/02/15 01:14:09;;;;;;;11.88;8.13;;;13.80;99.90;;;;;;2075010;28;20056;-68
2024/02/15 01:15:10;;;;;;;11.68;7.25;;;13.80;99.90;;;;;;2073953;28;20465;-68
2024/02/15 01:16:10;;;;;;;13.13;7.70;;;13.80;99.90;;;;;;2066683;28;20034;-67
2024/02/15 01:17:11;;;;;;;10.90;7.75;;;13.80;99.90;;;;;;2065378;28;20085;-67
2024/02/15 01:18:11;;;;;;;11.32;8.20;;;13.80;99.90;;;;;;2067500;28;20555;-68
2024/02/15 01:19:12;;;;;;;14.93;9.27;;;13.80;99.90;;;;;;2066906;28;20109;-68
2024/02/15 01:20:13;;;;;;;10.98;7.90;;;13.80;99.90;;;;;;2069060;28;20037;-67
2024/02/15 01:21:13;;;;;;;10.63;8.45;;;13.80;99.90;;;;;;2074759;28;20411;-67
2024/02/15 01:22:14;;;;;;;11.68;9.07;;;13.80;99.90;;;;;;2075595;28;20422;-68
2024/02/15 01:23:14;;;;;;;9.98;7.97;;;13.80;99.90;;;;;;2069620;28;20041;-67
2024/02/15 01:24:15;;;;;;;12.00;8.82;;;13.80;99.90;;;;;;2069234;28;20026;-67
2024/02/15 01:25:17;;;;;;;9.40;7.68;;;13.80;99.90;;;;;;2068825;28;20034;-68
2024/02/15 01:26:17;;;;;;;10.93;8.32;;;13.80;99.90;;;;;;2071276;28;20038;-67
2024/02/15 01:27:18;;;;;;;13.35;9.27;;;13.80;99.90;;;;;;2068560;28;20495;-68
2024/02/15 01:28:19;;;;;;;11.75;8.68;;;13.80;99.90;;;;;;2070822;28;20116;-67
2024/02/15 01:29:20;;;;;;;13.45;8.57;;;13.80;99.90;;;;;;2069440;28;21012;-68
2024/02/15 01:30:21;;;;;;;13.68;9.18;;;13.80;99.90;;;;;;2070924;28;20438;-68
2024/02/15 01:31:21;;;;;;;12.50;8.30;;;13.80;99.90;;;;;;2069709;28;20025;-68
2024/02/15 01:32:22;;;;;;;12.65;8.77;;;13.80;99.90;;;;;;2071720;28;20037;-67
2024/02/15 01:33:23;;;;;;;14.38;8.43;;;13.80;99.90;;;;;;2069638;28;20061;-67
2024/02/15 01:34:23;;;;;;;12.32;9.07;;;13.80;99.90;;;;;;2071841;28;20037;-68
2024/02/15 01:35:25;;;;;;;14.52;8.25;;;13.80;99.90;;;;;;2071726;28;20566;-68
2024/02/15 01:36:26;;;;;;;10.55;8.43;;;13.80;99.90;;;;;;2069103;28;20453;-68
2024/02/15 01:37:26;;;;;;;9.40;7.85;;;13.80;99.90;;;;;;2068907;28;20022;-67
2024/02/15 01:38:27;;;;;;;13.77;8.38;;;13.80;99.90;;;;;;2069297;28;20026;-67
2024/02/15 01:39:27;;;;;;;14.13;7.95;;;13.80;99.90;;;;;;2067054;28;20060;-67
2024/02/15 01:40:28;;;;;;;14.52;8.45;;;13.80;99.90;;;;;;2067838;28;20032;-67
2024/02/15 01:41:28;;;;;;;14.43;8.02;;;13.80;99.90;;;;;;2070517;28;20038;-68
2024/02/15 01:42:29;;;;;;;10.55;8.10;;;13.80;99.90;;;;;;2068975;28;20041;-68
2024/02/15 01:43:31;;;;;;;12.35;8.10;;;13.80;99.90;;;;;;2069366;28;20379;-67
2024/02/15 01:44:31;;;;;;;11.25;8.13;;;13.80;99.90;;;;;;2069329;28;20018;-67
2024/02/15 01:45:32;;;;;;;12.77;7.97;;;13.80;99.90;;;;;;2068123;28;20022;-68
2024/02/15 01:46:33;;;;;;;14.18;8.05;;;13.80;99.90;;;;;;2066946;28;20566;-67
2024/02/15 01:47:34;;;;;;;13.43;8.20;;;13.80;99.90;;;;;;2069353;28;20034;-68
2024/02/15 01:48:37;;;;;;;15.50;8.80;;;13.80;99.90;;;;;;2069845;28;20026;-67
2024/02/15 01:49:37;;;;;;;12.05;8.05;;;13.80;99.90;;;;;;2069652;28;20053;-68
2024/02/15 01:50:38;;;;;;;13.43;7.95;;;13.80;99.90;;;;;;2067464;28;20025;-67
2024/02/15 01:51:43;;;;;;;13.27;8.00;;;13.80;99.90;;;;;;2072348;28;20029;-67
2024/02/15 01:52:47;;;;;;;11.70;7.80;;;13.80;99.90;;;;;;2067624;28;20022;-67
2024/02/15 01:53:47;;;;;;;13.07;8.27;;;13.80;99.90;;;;;;2068399;28;20042;-68
2024/02/15 01:54:54;;;;;;;13.63;7.32;;;13.80;99.90;;;;;;2066893;28;20058;-71
2024/02/15 01:55:57;;;;;;;10.65;7.03;;;13.80;99.90;;;;;;2068057;28;20027;-72
2024/02/15 01:56:58;;;;;;;12.48;7.28;;;13.80;99.90;;;;;;2067705;28;20026;-72
2024/02/15 01:57:59;;;;;;;10.80;7.35;;;13.90;99.90;;;;;;2069251;28;20034;-71
2024/02/15 01:59:01;;;;;;;14.80;9.32;;;13.80;99.90;;;;;;2068188;28;20151;-71
2024/02/15 02:00:02;;;;;;;16.13;8.38;;;13.80;99.90;;;;;;2066268;28;20383;-70
2024/02/15 02:01:04;;;;;;;9.65;6.72;;;13.80;99.90;;;;;;2072125;28;20030;-72
2024/02/15 02:02:10;;;;;;;9.32;7.22;;;13.90;99.90;;;;;;2070506;28;20439;-71
2024/02/15 02:03:14;;;;;;;13.50;7.13;;;13.90;99.90;;;;;;2070377;28;20027;-70
2024/02/15 02:04:15;;;;;;;11.73;6.78;;;13.90;99.90;;;;;;2069426;28;20034;-72
2024/02/15 02:05:16;;;;;;;10.88;7.45;;;13.90;99.90;;;;;;2069016;28;20029;-72
2024/02/15 02:06:17;;;;;;;7.78;6.70;;;13.90;99.90;;;;;;2068185;28;20030;-72
2024/02/15 02:07:17;;;;;;;8.00;6.40;;;13.90;99.90;;;;;;2068218;28;20037;-72
2024/02/15 02:08:18;;;;;;;10.43;6.95;;;13.90;99.90;;;;;;2069169;28;20085;-71
2024/02/15 02:09:18;;;;;;;15.07;7.72;;;13.90;99.90;;;;;;2067951;28;20069;-72
2024/02/15 02:10:20;;;;;;;10.70;7.15;;;13.90;99.90;;;;;;2068808;28;20101;-72
2024/02/15 02:11:21;;;;;;;11.68;6.97;;;13.90;99.90;;;;;;2067723;28;20072;-71
2024/02/15 02:12:22;;;;;;;14.10;7.00;;;13.90;99.90;;;;;;2071600;28;20021;-71
2024/02/15 02:13:23;;;;;;;12.90;7.07;;;13.90;99.90;;;;;;2065588;28;20026;-72
2024/02/15 02:14:24;;;;;;;11.20;6.28;;;13.90;99.90;;;;;;2069424;28;20032;-72
2024/02/15 02:15:24;;;;;;;10.88;7.13;;;13.90;99.90;;;;;;2066989;28;20245;-71
2024/02/15 02:16:29;;;;;;;8.52;6.53;;;13.90;99.90;;;;;;2076128;28;20045;-71
2024/02/15 02:17:30;;;;;;;10.10;6.53;;;13.90;99.90;;;;;;2076383;28;20064;-72
2024/02/15 02:18:30;;;;;;;12.02;6.57;;;13.90;99.90;;;;;;2073023;28;20025;-71
2024/02/15 02:19:31;;;;;;;13.30;7.15;;;13.90;99.90;;;;;;2077824;28;20075;-72
2024/02/15 02:20:32;;;;;;;10.93;6.43;;;13.90;99.90;;;;;;2077316;28;20025;-71
2024/02/15 02:21:34;;;;;;;11.07;6.43;;;13.90;99.90;;;;;;2077476;28;20035;-72
2024/02/15 02:22:35;;;;;;;10.15;5.80;;;13.90;99.90;;;;;;2075348;28;20086;-71
2024/02/15 02:23:36;;;;;;;10.25;6.63;;;13.90;99.90;;;;;;2077217;28;20064;-71
2024/02/15 02:24:45;;;;;;;13.70;7.22;;;13.90;99.90;;;;;;2077155;28;20034;-71
2024/02/15 02:25:49;;;;;;;12.70;6.68;;;13.90;99.90;;;;;;2076179;28;20156;-71
2024/02/15 02:26:49;;;;;;;10.15;7.05;;;13.90;99.90;;;;;;2076518;28;20071;-72
2024/02/15 02:27:51;;;;;;;11.98;7.20;;;13.90;99.90;;;;;;2075805;28;20430;-71
2024/02/15 02:28:55;;;;;;;11.40;6.47;;;13.90;99.90;;;;;;2075943;28;20033;-71
2024/02/15 02:29:57;;;;;;;8.48;5.85;;;13.90;99.90;;;;;;2076306;28;20041;-72
2024/02/15 02:30:57;;;;;;;11.20;6.38;;;13.90;99.90;;;;;;2074897;28;20026;-72
2024/02/15 02:31:58;;;;;;;11.57;6.03;;;13.90;99.90;;;;;;2077769;28;20068;-72
2024/02/15 02:32:59;;;;;;;14.05;6.90;;;13.90;99.90;;;;;;2074318;28;20375;-72
2024/02/15 02:33:59;;;;;;;10.70;6.65;;;13.90;99.90;;;;;;2077230;28;20064;-71
2024/02/15 02:35:00;;;;;;;9.48;6.40;;;13.90;99.90;;;;;;2076825;28;20382;-72
2024/02/15 02:36:01;;;;;;;16.25;6.57;;;13.90;99.90;;;;;;2074500;28;20029;-72
2024/02/15 02:37:05;;;;;;;16.02;7.07;;;13.90;99.90;;;;;;2077740;28;20087;-72
2024/02/15 02:38:05;;;;;;;8.63;6.72;;;13.90;99.90;;;;;;2069719;28;20022;-71
2024/02/15 02:39:07;;;;;;;11.68;6.20;;;13.90;99.90;;;;;;2068018;28;20038;-71
2024/02/15 02:40:09;;;;;;;11.95;7.07;;;13.90;99.90;;;;;;2074031;28;20473;-71
2024/02/15 02:41:09;;;;;;;13.80;6.40;;;14.00;99.90;;;;;;2076737;28;20029;-71
2024/02/15 02:42:10;;;;;;;8.85;6.40;;;13.90;99.90;;;;;;2076788;28;20473;-72
2024/02/15 02:43:10;;;;;;;12.57;6.22;;;13.90;99.90;;;;;;2076981;28;20437;-71
2024/02/15 02:44:11;;;;;;;14.43;6.88;;;13.90;99.90;;;;;;2074150;28;20084;-72
2024/02/15 02:45:12;;;;;;;9.45;6.43;;;13.90;99.90;;;;;;2076821;28;20057;-71
2024/02/15 02:46:12;;;;;;;10.80;6.78;;;13.90;99.90;;;;;;2075539;28;20037;-72
2024/02/15 02:47:13;;;;;;;9.20;6.03;;;13.90;99.90;;;;;;2077683;28;20425;-71
2024/02/15 02:48:13;;;;;;;10.07;6.60;;;13.90;99.90;;;;;;2076043;28;20017;-72
2024/02/15 02:49:14;;;;;;;11.45;6.47;;;13.90;99.90;;;;;;2075255;28;20482;-71
2024/02/15 02:50:15;;;;;;;13.10;6.43;;;13.90;99.90;;;;;;2077648;28;20069;-72
2024/02/15 02:51:16;;;;;;;10.05;6.90;;;13.90;99.90;;;;;;2074857;28;20025;-70
2024/02/15 02:52:17;;;;;;;10.85;6.32;;;13.90;99.90;;;;;;2077684;28;20025;-72
2024/02/15 02:53:18;;;;;;;11.85;6.78;;;14.00;99.90;;;;;;2076940;28;20052;-72
2024/02/15 02:54:18;;;;;;;10.02;6.40;;;14.00;99.90;;;;;;2076741;28;20029;-72
2024/02/15 02:55:20;;;;;;;9.73;6.57;;;13.90;99.90;;;;;;2076446;28;20439;-72
2024/02/15 02:56:21;;;;;;;11.35;6.43;;;14.00;99.90;;;;;;2075959;28;20032;-72
2024/02/15 02:57:21;;;;;;;10.52;6.63;;;13.90;99.90;;;;;;2077216;28;20036;-71
2024/02/15 02:58:23;;;;;;;12.90;6.45;;;14.00;99.90;;;;;;2077691;28;20077;-72
2024/02/15 02:59:25;;;;;;;13.00;6.70;;;13.90;99.90;;;;;;2078447;28;20029;-72
2024/02/15 03:00:27;;;;;;;10.93;6.68;;;13.90;99.90;;;;;;2077463;28;20500;-72
2024/02/15 03:01:27;;;;;;;11.45;5.95;;;13.90;99.90;;;;;;2076984;28;20042;-72
2024/02/15 03:02:29;;;;;;;9.73;5.95;;;13.90;99.90;;;;;;2076309;28;20501;-71
2024/02/15 03:03:30;;;;;;;13.48;6.50;;;13.90;99.90;;;;;;2075728;28;20026;-71
2024/02/15 03:04:32;;;;;;;12.30;6.05;;;13.90;99.90;;;;;;2077809;28;20141;-72
2024/02/15 03:05:33;;;;;;;11.88;6.63;;;13.90;99.90;;;;;;2075598;28;20466;-67
2024/02/15 03:06:34;;;;;;;10.80;5.88;;;13.90;99.90;;;;;;2076519;28;20387;-68
2024/02/15 03:07:40;;;;;;;12.10;6.03;;;13.90;99.90;;;;;;2076567;28;20118;-67
2024/02/15 03:08:41;;;;;;;8.30;5.20;;;13.90;99.90;;;;;;2073678;28;20449;-68
2024/02/15 03:09:41;;;;;;;9.90;6.15;;;13.90;99.90;;;;;;2074942;28;20107;-67
2024/02/15 03:10:42;;;;;;;11.98;6.13;;;13.90;99.90;;;;;;2074625;28;20159;-67
2024/02/15 03:11:43;;;;;;;13.55;6.47;;;13.90;99.90;;;;;;2074279;28;20022;-67
2024/02/15 03:12:47;;;;;;;12.15;6.95;;;13.90;99.90;;;;;;2076063;28;20052;-67
2024/02/15 03:13:48;;;;;;;12.23;5.88;;;13.90;99.90;;;;;;2077887;28;20033;-68
2024/02/15 03:14:49;;;;;;;10.70;5.78;;;13.90;99.90;;;;;;2075826;28;20096;-66
2024/02/15 03:15:50;;;;;;;11.55;6.00;;;13.90;99.90;;;;;;2077757;28;20025;-66
2024/02/15 03:16:51;;;;;;;12.20;6.20;;;13.90;99.90;;;;;;2075338;28;20223;-67
2024/02/15 03:17:51;;;;;;;12.88;7.22;;;13.90;99.90;;;;;;2069606;28;20026;-69
2024/02/15 03:18:52;;;;;;;12.90;6.43;;;13.90;99.90;;;;;;2069183;28;20061;-67
2024/02/15 03:19:53;;;;;;;10.75;5.88;;;13.90;99.90;;;;;;2076979;28;20049;-67
2024/02/15 03:20:53;;;;;;;7.55;5.50;;;13.90;99.90;;;;;;2075563;28;20042;-68
2024/02/15 03:21:54;;;;;;;14.50;5.93;;;13.90;99.90;;;;;;2077122;28;20114;-67
2024/02/15 03:22:59;;;;;;;6.15;4.97;;;13.90;99.90;;;;;;2076428;28;20039;-67
2024/02/15 03:23:59;;;;;;;11.90;6.32;;;13.90;99.90;;;;;;2076647;28;20053;-67
2024/02/15 03:25:00;;;;;;;9.77;5.30;;;13.90;99.90;;;;;;2074261;28;20117;-68
2024/02/15 03:26:03;;;;;;;9.00;5.32;;;14.00;99.90;;;;;;2078404;28;20037;-67
2024/02/15 03:27:04;;;;;;;11.25;6.15;;;13.90;99.90;;;;;;2074756;28;20021;-67
2024/02/15 03:28:05;;;;;;;13.10;5.43;;;13.90;99.90;;;;;;2076915;28;20372;-68
2024/02/15 03:29:12;;;;;;;9.15;5.18;;;13.90;99.90;;;;;;2074747;28;20605;-67
2024/02/15 03:30:13;;;;;;;9.13;5.53;;;13.90;99.90;;;;;;2076853;28;20493;-67
2024/02/15 03:31:14;;;;;;;8.50;5.38;;;14.00;99.90;;;;;;2077195;28;20056;-67
2024/02/15 03:32:15;;;;;;;11.32;5.05;;;13.90;99.90;;;;;;2076234;28;20367;-67
2024/02/15 03:33:16;;;;;;;15.85;5.60;;;13.90;99.90;;;;;;2076180;28;20040;-67
2024/02/15 03:34:17;;;;;;;10.52;5.22;;;13.90;99.90;;;;;;2079215;28;20037;-67
2024/02/15 03:35:19;;;;;;;12.38;5.25;;;13.90;99.90;;;;;;2076325;28;20354;-67
2024/02/15 03:36:21;;;;;;;11.18;4.82;;;13.90;99.90;;;;;;2076035;28;20372;-67
2024/02/15 03:37:22;;;;;;;9.45;5.00;;;13.90;99.90;;;;;;2074535;28;20028;-66
2024/02/15 03:38:22;;;;;;;11.32;4.57;;;13.90;99.90;;;;;;2077353;28;20030;-67
2024/02/15 03:39:23;;;;;;;10.90;4.82;;;13.90;99.90;;;;;;2076921;28;20125;-67
2024/02/15 03:40:27;;;;;;;8.25;4.82;;;13.90;99.90;;;;;;2073691;28;20021;-67
2024/02/15 03:41:32;;;;;;;8.95;4.63;;;13.90;99.90;;;;;;2071489;28;20034;-67
2024/02/15 03:42:33;;;;;;;8.90;4.68;;;13.90;99.90;;;;;;2077216;28;20101;-67
2024/02/15 03:43:33;;;;;;;10.65;4.20;;;13.90;99.90;;;;;;2074935;28;20025;-67
2024/02/15 03:44:34;;;;;;;11.30;4.45;;;13.90;99.90;;;;;;2074772;28;20057;-67
2024/02/15 03:45:35;;;;;;;8.07;3.95;;;13.90;99.90;;;;;;2078319;28;20026;-67
2024/02/15 03:46:35;;;;;;;8.48;4.45;;;13.90;99.90;;;;;;2074095;28;20076;-67
2024/02/15 03:47:36;;;;;;;10.45;4.63;;;13.90;99.90;;;;;;2077260;28;20051;-67
2024/02/15 03:48:37;;;;;;;8.90;4.70;;;13.90;99.90;;;;;;2075852;28;20053;-68
2024/02/15 03:49:39;;;;;;;9.45;4.10;;;13.90;99.90;;;;;;2075834;28;20073;-67
2024/02/15 03:50:40;;;;;;;11.50;4.90;;;13.90;99.90;;;;;;2075748;28;20029;-67
2024/02/15 03:51:41;;;;;;;11.95;5.15;;;13.90;99.90;;;;;;2075350;28;20109;-68
2024/02/15 03:52:43;;;;;;;7.55;4.15;;;13.90;99.90;;;;;;2077011;28;20432;-68
2024/02/15 03:53:44;;;;;;;8.65;4.60;;;13.90;99.90;;;;;;2075342;28;20034;-67
2024/02/15 03:54:45;;;;;;;8.38;4.72;;;13.90;99.90;;;;;;2077369;28;20117;-67
2024/02/15 03:55:46;;;;;;;7.93;4.22;;;13.90;99.90;;;;;;2071419;28;20075;-68
2024/02/15 03:56:51;;;;;;;12.23;6.00;;;13.90;99.90;;;;;;2073856;28;20109;-67
2024/02/15 03:57:52;;;;;;;10.73;4.35;;;13.80;99.90;;;;;;2077546;28;20079;-67
2024/02/15 03:58:53;;;;;;;11.15;4.28;;;13.80;99.90;;;;;;2074360;28;20037;-68
2024/02/15 03:59:56;;;;;;;7.00;4.30;;;13.80;99.90;;;;;;2066283;28;20089;-67
2024/02/15 04:00:57;;;;;;;11.95;4.78;;;13.90;99.90;;;;;;2070074;28;20034;-67
2024/02/15 04:01:57;;;;;;;9.43;4.20;;;13.80;99.90;;;;;;2075482;28;20095;-67
2024/02/15 04:02:58;;;;;;;11.45;4.53;;;13.90;99.90;;;;;;2075687;28;20470;-68
2024/02/15 04:03:59;;;;;;;14.13;4.82;;;13.80;99.90;;;;;;2077560;28;20034;-67
2024/02/15 04:05:00;;;;;;;10.15;4.60;;;13.80;99.90;;;;;;2076179;28;20036;-67
2024/02/15 04:06:01;;;;;;;11.63;4.10;;;13.90;99.90;;;;;;2076510;28;20033;-68
2024/02/15 04:07:03;;;;;;;10.98;4.68;;;13.90;99.90;;;;;;2079115;28;20034;-67
2024/02/15 04:08:05;;;;;;;13.73;4.82;;;13.90;99.90;;;;;;2075087;28;20076;-67
2024/02/15 04:09:07;;;;;;;6.40;4.10;;;13.90;99.90;;;;;;2077644;28;20508;-68
2024/02/15 04:10:08;;;;;;;8.13;4.32;;;13.90;99.90;;;;;;2076671;28;20021;-67
2024/02/15 04:11:10;;;;;;;7.68;3.90;;;13.90;99.90;;;;;;2075183;28;20506;-67
2024/02/15 04:12:11;;;;;;;9.52;4.00;;;13.90;99.90;;;;;;2077261;28;20022;-68
2024/02/15 04:13:12;;;;;;;9.60;4.25;;;13.90;99.90;;;;;;2076335;28;20030;-67
2024/02/15 04:14:13;;;;;;;9.88;4.10;;;13.90;99.90;;;;;;2074585;28;20029;-67
2024/02/15 04:15:14;;;;;;;12.27;4.00;;;13.90;99.90;;;;;;2075653;28;20037;-71
2024/02/15 04:16:16;;;;;;;8.80;3.92;;;13.90;99.90;;;;;;2073952;28;20080;-71
2024/02/15 04:17:17;;;;;;;8.55;4.20;;;13.90;99.90;;;;;;2075965;28;20114;-71
2024/02/15 04:18:17;;;;;;;9.30;4.43;;;13.90;99.90;;;;;;2077092;28;20045;-71
2024/02/15 04:19:19;;;;;;;6.85;3.90;;;13.90;99.90;;;;;;2066488;28;20038;-71
2024/02/15 04:20:21;;;;;;;11.43;4.40;;;13.90;99.90;;;;;;2070342;28;20033;-72
2024/02/15 04:21:22;;;;;;;13.70;4.45;;;13.90;99.90;;;;;;2078226;28;20056;-71
2024/02/15 04:22:23;;;;;;;9.00;3.88;;;13.90;99.90;;;;;;2077501;28;20026;-72
2024/02/15 04:23:23;;;;;;;10.23;3.95;;;13.90;99.90;;;;;;2077036;28;20029;-72
2024/02/15 04:24:25;;;;;;;8.15;3.70;;;13.90;99.90;;;;;;2075538;28;20022;-72
2024/02/15 04:25:27;;;;;;;11.50;3.83;;;13.90;99.90;;;;;;2077483;28;20133;-71
2024/02/15 04:26:30;;;;;;;8.82;3.78;;;13.90;99.90;;;;;;2076893;28;20033;-71
2024/02/15 04:27:30;;;;;;;6.68;3.40;;;13.90;99.90;;;;;;2075489;28;20034;-72
2024/02/15 04:28:33;;;;;;;7.43;3.55;;;13.90;99.90;;;;;;2076261;28;20104;-71
2024/02/15 04:29:34;;;;;;;8.32;3.25;;;14.00;99.90;;;;;;2075363;28;20049;-71
2024/02/15 04:30:38;;;;;;;8.25;3.45;;;14.00;99.90;;;;;;2077128;28;20026;-67
2024/02/15 04:31:39;;;;;;;8.00;3.72;;;14.00;99.90;;;;;;2075769;28;20034;-67
2024/02/15 04:32:40;;;;;;;7.47;3.35;;;13.90;99.90;;;;;;2077244;28;20025;-66
2024/02/15 04:33:41;;;;;;;7.68;3.63;;;14.00;99.90;;;;;;2076020;28;20021;-68
2024/02/15 04:34:41;;;;;;;8.90;3.65;;;13.90;99.90;;;;;;2076532;28;20026;-67
2024/02/15 04:35:43;;;;;;;7.22;3.58;;;13.90;99.90;;;;;;2074755;28;20026;-67
2024/02/15 04:36:50;;;;;;;7.68;4.00;;;13.90;99.90;;;;;;2075510;28;20044;-68
2024/02/15 04:37:53;;;;;;;8.07;4.10;;;13.90;99.90;;;;;;2076176;28;20037;-67
2024/02/15 04:38:53;;;;;;;10.00;4.00;;;13.90;99.90;;;;;;2066905;28;20066;-67
2024/02/15 04:39:54;;;;;;;6.03;3.08;;;13.90;99.90;;;;;;2066013;28;20383;-67
2024/02/15 04:40:55;;;;;;;9.48;3.40;;;13.90;99.90;;;;;;2076734;28;20045;-67
2024/02/15 04:41:55;;;;;;;6.40;3.95;;;13.90;99.90;;;;;;2075648;28;20041;-68
2024/02/15 04:42:58;;;;;;;4.97;3.13;;;13.90;99.90;;;;;;2076782;28;20046;-68
2024/02/15 04:43:58;;;;;;;9.70;3.10;;;13.90;99.90;;;;;;2075169;28;20117;-67
2024/02/15 04:44:59;;;;;;;6.60;3.28;;;14.00;99.90;;;;;;2075714;28;20026;-68
2024/02/15 04:46:00;;;;;;;8.57;3.28;;;13.90;99.90;;;;;;2076824;28;20061;-66
2024/02/15 04:47:03;;;;;;;14.57;3.40;;;13.90;99.90;;;;;;2075294;28;20041;-67
2024/02/15 04:48:04;;;;;;;5.03;2.97;;;14.00;99.90;;;;;;2075094;28;20152;-67
2024/02/15 04:49:07;;;;;;;9.73;3.67;;;14.00;99.90;;;;;;2075842;28;20029;-67
2024/02/15 04:50:09;;;;;;;8.82;2.97;;;14.00;99.90;;;;;;2075084;28;20033;-67
2024/02/15 04:51:13;;;;;;;6.38;3.17;;;14.00;99.90;;;;;;2077587;28;20033;-67
2024/02/15 04:52:14;;;;;;;5.57;2.78;;;14.00;99.90;;;;;;2075381;28;20037;-68
2024/02/15 04:53:15;;;;;;;6.32;3.10;;;14.00;99.90;;;;;;2074758;28;20102;-67
2024/02/15 04:54:16;;;;;;;7.32;3.22;;;14.00;99.90;;;;;;2068661;28;20025;-68
2024/02/15 04:55:17;;;;;;;9.65;3.30;;;14.00;99.90;;;;;;2065802;28;20490;-67
2024/02/15 04:56:18;;;;;;;7.95;2.85;;;14.00;99.90;;;;;;2067227;28;20030;-66
2024/02/15 04:57:18;;;;;;;7.43;2.92;;;14.00;99.90;;;;;;2066909;28;20501;-67
2024/02/15 04:58:19;;;;;;;9.55;3.25;;;14.00;99.90;;;;;;2076025;28;20379;-67
2024/02/15 04:59:21;;;;;;;8.90;2.92;;;14.00;99.90;;;;;;2078891;28;20044;-67
2024/02/15 05:00:25;;;;;;;6.00;2.60;;;14.00;99.90;;;;;;2076585;28;20038;-67
2024/02/15 05:01:26;;;;;;;7.25;2.83;;;14.00;99.90;;;;;;2076968;28;20124;-67
2024/02/15 05:02:26;;;;;;;4.32;2.35;;;14.00;99.90;;;;;;2078779;28;20052;-67
2024/02/15 05:03:27;;;;;;;5.15;2.20;;;14.00;99.90;;;;;;2078203;28;20033;-68
2024/02/15 05:04:29;;;;;;;10.32;2.33;;;14.00;99.90;;;;;;2078227;28;20029;-67
2024/02/15 05:05:29;;;;;;;7.32;2.33;;;14.00;99.90;;;;;;2078277;28;20029;-67
2024/02/15 05:06:32;;;;;;;7.53;2.40;;;14.00;99.90;;;;;;2078472;28;20653;-68
2024/02/15 05:07:32;;;;;;;6.22;2.72;;;14.00;99.90;;;;;;2076010;28;20486;-68
2024/02/15 05:08:34;;;;;;;7.03;2.80;;;14.00;99.90;;;;;;2078034;28;20355;-67
2024/02/15 05:09:35;;;;;;;8.25;2.38;;;14.00;99.90;;;;;;2077318;28;20435;-67
2024/02/15 05:10:36;;;;;;;7.70;2.58;;;14.00;99.90;;;;;;2077514;28;20063;-67
2024/02/15 05:11:40;;;;;;;7.22;2.28;;;14.00;99.90;;;;;;2080443;28;20074;-67
2024/02/15 05:12:42;;;;;;;5.82;2.38;;;14.00;99.90;;;;;;2078226;28;20021;-71
2024/02/15 05:13:44;;;;;;;7.05;2.53;;;14.00;99.90;;;;;;2077234;28;20053;-72
2024/02/15 05:14:44;;;;;;;11.90;3.15;;;14.00;99.90;;;;;;2069674;28;20137;-72
2024/02/15 05:15:45;;;;;;;4.03;2.22;;;14.00;99.90;;;;;;2069463;28;20060;-71
2024/02/15 05:16:47;;;;;;;8.82;3.00;;;14.00;99.90;;;;;;2079866;28;20046;-72